createdAt,value
2022-09-14T00:09:41.900Z,92.3
2022-09-14T00:29:41.835Z,91.2
2022-09-14T00:49:41.805Z,90.3
2022-09-14T01:09:41.797Z,92.0
2022-09-14T01:29:41.754Z,92.3
2022-09-14T01:49:41.718Z,92.5
2022-09-14T02:09:41.686Z,93.8
2022-09-14T02:29:41.664Z,92.7
2022-09-14T02:49:41.647Z,93.9
2022-09-14T03:09:41.610Z,94.0
2022-09-14T03:29:41.567Z,94.3
2022-09-14T03:49:41.555Z,95.2
2022-09-14T04:09:41.520Z,92.3
2022-09-14T04:29:41.476Z,93.6
2022-09-14T04:49:41.454Z,95.0
2022-09-14T05:09:41.469Z,94.1
2022-09-14T05:29:41.394Z,94.2
2022-09-14T05:49:41.458Z,94.1
2022-09-14T06:09:41.359Z,96.0
2022-09-14T06:29:41.314Z,94.8
2022-09-14T06:49:41.279Z,96.0
2022-09-14T07:09:41.246Z,95.4
2022-09-14T07:29:41.270Z,95.3
2022-09-14T07:49:41.181Z,94.6
2022-09-14T08:09:41.169Z,92.6
2022-09-14T08:29:41.130Z,89.4
2022-09-14T08:49:41.090Z,86.1
2022-09-14T09:09:41.138Z,84.2
2022-09-14T09:29:41.043Z,80.1
2022-09-14T09:49:41.002Z,80.9
2022-09-14T10:09:41.021Z,79.8
2022-09-14T10:29:40.946Z,76.3
2022-09-14T10:49:40.922Z,76.5
2022-09-14T11:09:40.907Z,78.4
2022-09-14T11:29:40.874Z,74.1
2022-09-14T11:49:40.841Z,74.9
2022-09-14T12:09:40.795Z,73.5
2022-09-14T12:29:40.776Z,73.1
2022-09-14T12:49:40.824Z,72.3
2022-09-14T13:09:40.688Z,70.9
2022-09-14T13:29:40.667Z,73.1
2022-09-14T13:49:40.633Z,73.5
2022-09-14T14:09:40.594Z,74.6
2022-09-14T14:29:40.655Z,76.9
2022-09-14T14:49:40.612Z,78.9
2022-09-14T15:09:40.504Z,72.3
2022-09-14T15:29:40.480Z,73.9
2022-09-14T15:49:40.447Z,77.4
2022-09-14T16:09:40.448Z,89.0
2022-09-14T16:29:40.391Z,91.5
2022-09-14T16:49:40.365Z,93.0
2022-09-14T17:09:40.358Z,92.9
2022-09-14T17:29:40.292Z,92.4
2022-09-14T17:49:40.261Z,94.4
2022-09-14T18:09:40.240Z,94.4
2022-09-14T18:29:40.221Z,95.0
2022-09-14T18:49:40.168Z,94.4
2022-09-14T19:09:40.145Z,94.6
2022-09-14T19:29:40.107Z,95.8
2022-09-14T19:49:40.094Z,96.2
2022-09-14T20:09:40.061Z,93.4
2022-09-14T20:29:40.027Z,96.4
2022-09-14T20:49:40.140Z,96.3
2022-09-14T21:09:40.085Z,95.4
2022-09-14T21:29:39.941Z,96.5
2022-09-14T21:49:40.035Z,96.0
2022-09-14T22:09:39.950Z,95.4
2022-09-14T22:29:39.856Z,96.1
2022-09-14T22:49:39.948Z,95.9
2022-09-14T23:09:39.796Z,95.5
2022-09-14T23:29:39.752Z,94.8
2022-09-14T23:49:39.742Z,94.4
